sensor_id;sensor_type;location;lat;lon;timestamp;P1;durP1;ratioP1;P2;durP2;ratioP2
17949;SDS011;9100;48.700;9.316;2023-12-28T00:00:08;5.8;;;5.2;;
17949;SDS011;9100;48.700;9.316;2023-12-28T00:01:08;5.8;;;5.2;;
17949;SDS011;9100;48.700;9.316;2023-12-28T00:01:15;6.8;;;4.2;;
17949;SDS011;9100;48.700;9.316;2023-12-28T00:02:09;6.8;;;4.2;;
17949;SDS011;9100;48.700;9.316;2023-12-28T00:03:08;6.8;;;4.2;;
17949;SDS011;9100;48.700;9.316;2023-12-28T00:04:08;6.8;;;4.2;;
17949;SDS011;9100;48.700;9.316;2023-12-28T00:05:09;6.8;;;4.2;;
17949;SDS011;9100;48.700;9.316;2023-12-28T00:06:08;6.8;;;4.2;;
17949;SDS011;9100;48.700;9.316;2023-12-28T00:06:15;5.7;;;5.1;;
17949;SDS011;9100;48.700;9.316;2023-12-28T00:07:08;5.7;;;5.1;;
17949;SDS011;9100;48.700;9.316;2023-12-28T00:08:08;5.7;;;5.1;;
17949;SDS011;9100;48.700;9.316;2023-12-28T00:09:08;5.7;;;5.1;;
17949;SDS011;9100;48.700;9.316;2023-12-28T00:10:09;5.7;;;5.1;;
17949;SDS011;9100;48.700;9.316;2023-12-28T00:11:08;5.7;;;5.1;;
17949;SDS011;9100;48.700;9.316;2023-12-28T00:11:15;7.1;;;4.6;;
17949;SDS011;9100;48.700;9.316;2023-12-28T00:12:08;7.1;;;4.6;;
17949;SDS011;9100;48.700;9.316;2023-12-28T00:13:08;7.1;;;4.6;;
17949;SDS011;9100;48.700;9.316;2023-12-28T00:14:08;7.1;;;4.6;;
17949;SDS011;9100;48.700;9.316;2023-12-28T00:15:08;7.1;;;4.6;;
17949;SDS011;9100;48.700;9.316;2023-12-28T00:16:08;7.1;;;4.6;;
17949;SDS011;9100;48.700;9.316;2023-12-28T00:16:15;7.3;;;4.8;;
17949;SDS011;9100;48.700;9.316;2023-12-28T00:17:08;7.3;;;4.8;;
17949;SDS011;9100;48.700;9.316;2023-12-28T00:18:08;7.3;;;4.8;;
17949;SDS011;9100;48.700;9.316;2023-12-28T00:19:08;7.3;;;4.8;;
17949;SDS011;9100;48.700;9.316;2023-12-28T00:20:09;7.3;;;4.8;;
17949;SDS011;9100;48.700;9.316;2023-12-28T00:21:08;7.3;;;4.8;;
17949;SDS011;9100;48.700;9.316;2023-12-28T00:21:15;5.9;;;4.9;;
17949;SDS011;9100;48.700;9.316;2023-12-28T00:22:08;5.9;;;4.9;;
17949;SDS011;9100;48.700;9.316;2023-12-28T00:23:08;5.9;;;4.9;;
17949;SDS011;9100;48.700;9.316;2023-12-28T00:24:08;5.9;;;4.9;;
17949;SDS011;9100;48.700;9.316;2023-12-28T00:25:09;5.9;;;4.9;;
17949;SDS011;9100;48.700;9.316;2023-12-28T00:26:09;5.9;;;4.9;;
17949;SDS011;9100;48.700;9.316;2023-12-28T00:26:15;6.4;;;4.9;;
17949;SDS011;9100;48.700;9.316;2023-12-28T00:27:08;6.4;;;4.9;;
17949;SDS011;9100;48.700;9.316;2023-12-28T00:28:08;6.4;;;4.9;;
17949;SDS011;9100;48.700;9.316;2023-12-28T00:29:08;6.4;;;4.9;;
17949;SDS011;9100;48.700;9.316;2023-12-28T00:30:09;6.4;;;4.9;;
17949;SDS011;9100;48.700;9.316;2023-12-28T00:31:09;6.4;;;4.9;;
17949;SDS011;9100;48.700;9.316;2023-12-28T00:31:15;6;;;4.9;;
17949;SDS011;9100;48.700;9.316;2023-12-28T00:32:09;6;;;4.9;;
17949;SDS011;9100;48.700;9.316;2023-12-28T00:33:08;6;;;4.9;;
17949;SDS011;9100;48.700;9.316;2023-12-28T00:34:08;6;;;4.9;;
17949;SDS011;9100;48.700;9.316;2023-12-28T00:35:08;6;;;4.9;;
17949;SDS011;9100;48.700;9.316;2023-12-28T00:36:09;6;;;4.9;;
17949;SDS011;9100;48.700;9.316;2023-12-28T00:36:15;7.2;;;5.1;;
17949;SDS011;9100;48.700;9.316;2023-12-28T00:37:08;7.2;;;5.1;;
17949;SDS011;9100;48.700;9.316;2023-12-28T00:38:08;7.2;;;5.1;;
17949;SDS011;9100;48.700;9.316;2023-12-28T00:39:08;7.2;;;5.1;;
17949;SDS011;9100;48.700;9.316;2023-12-28T00:40:09;7.2;;;5.1;;
17949;SDS011;9100;48.700;9.316;2023-12-28T00:41:08;7.2;;;5.1;;
17949;SDS011;9100;48.700;9.316;2023-12-28T00:41:15;7.1;;;5.6;;
17949;SDS011;9100;48.700;9.316;2023-12-28T00:42:08;7.1;;;5.6;;
17949;SDS011;9100;48.700;9.316;2023-12-28T00:43:08;7.1;;;5.6;;
17949;SDS011;9100;48.700;9.316;2023-12-28T00:44:08;7.1;;;5.6;;
17949;SDS011;9100;48.700;9.316;2023-12-28T00:45:09;7.1;;;5.6;;
17949;SDS011;9100;48.700;9.316;2023-12-28T00:46:08;7.1;;;5.6;;
17949;SDS011;9100;48.700;9.316;2023-12-28T00:46:15;7.3;;;5.3;;
17949;SDS011;9100;48.700;9.316;2023-12-28T00:47:08;7.3;;;5.3;;
17949;SDS011;9100;48.700;9.316;2023-12-28T00:48:08;7.3;;;5.3;;
17949;SDS011;9100;48.700;9.316;2023-12-28T00:49:08;7.3;;;5.3;;
17949;SDS011;9100;48.700;9.316;2023-12-28T00:50:09;7.3;;;5.3;;
17949;SDS011;9100;48.700;9.316;2023-12-28T00:51:08;7.3;;;5.3;;
17949;SDS011;9100;48.700;9.316;2023-12-28T00:51:15;5.3;;;4.4;;
17949;SDS011;9100;48.700;9.316;2023-12-28T00:52:08;5.3;;;4.4;;
17949;SDS011;9100;48.700;9.316;2023-12-28T00:53:08;5.3;;;4.4;;
17949;SDS011;9100;48.700;9.316;2023-12-28T00:54:08;5.3;;;4.4;;
17949;SDS011;9100;48.700;9.316;2023-12-28T00:55:09;5.3;;;4.4;;
17949;SDS011;9100;48.700;9.316;2023-12-28T00:56:09;5.3;;;4.4;;
17949;SDS011;9100;48.700;9.316;2023-12-28T00:56:15;6.1;;;4.3;;
17949;SDS011;9100;48.700;9.316;2023-12-28T00:57:08;6.1;;;4.3;;
17949;SDS011;9100;48.700;9.316;2023-12-28T00:58:09;6.1;;;4.3;;
17949;SDS011;9100;48.700;9.316;2023-12-28T00:59:08;6.1;;;4.3;;
17949;SDS011;9100;48.700;9.316;2023-12-28T01:00:09;6.1;;;4.3;;
17949;SDS011;9100;48.700;9.316;2023-12-28T01:01:09;6.1;;;4.3;;
17949;SDS011;9100;48.700;9.316;2023-12-28T01:01:15;5.5;;;4.7;;
17949;SDS011;9100;48.700;9.316;2023-12-28T01:02:09;5.5;;;4.7;;
17949;SDS011;9100;48.700;9.316;2023-12-28T01:03:08;5.5;;;4.7;;
17949;SDS011;9100;48.700;9.316;2023-12-28T01:04:09;5.5;;;4.7;;
17949;SDS011;9100;48.700;9.316;2023-12-28T01:05:08;5.5;;;4.7;;
17949;SDS011;9100;48.700;9.316;2023-12-28T01:06:08;5.5;;;4.7;;
17949;SDS011;9100;48.700;9.316;2023-12-28T01:06:15;6.2;;;5;;
17949;SDS011;9100;48.700;9.316;2023-12-28T01:07:08;6.2;;;5;;
17949;SDS011;9100;48.700;9.316;2023-12-28T01:08:08;6.2;;;5;;
17949;SDS011;9100;48.700;9.316;2023-12-28T01:09:08;6.2;;;5;;
17949;SDS011;9100;48.700;9.316;2023-12-28T01:10:08;6.2;;;5;;
17949;SDS011;9100;48.700;9.316;2023-12-28T01:11:10;6.2;;;5;;
17949;SDS011;9100;48.700;9.316;2023-12-28T01:11:15;5.5;;;4.5;;
17949;SDS011;9100;48.700;9.316;2023-12-28T01:12:08;5.5;;;4.5;;
17949;SDS011;9100;48.700;9.316;2023-12-28T01:13:08;5.5;;;4.5;;
17949;SDS011;9100;48.700;9.316;2023-12-28T01:14:08;5.5;;;4.5;;
17949;SDS011;9100;48.700;9.316;2023-12-28T01:15:09;5.5;;;4.5;;
17949;SDS011;9100;48.700;9.316;2023-12-28T01:16:08;5.5;;;4.5;;
17949;SDS011;9100;48.700;9.316;2023-12-28T01:16:15;5.3;;;4.3;;
17949;SDS011;9100;48.700;9.316;2023-12-28T01:17:08;5.3;;;4.3;;
17949;SDS011;9100;48.700;9.316;2023-12-28T01:18:08;5.3;;;4.3;;
17949;SDS011;9100;48.700;9.316;2023-12-28T01:19:08;5.3;;;4.3;;
17949;SDS011;9100;48.700;9.316;2023-12-28T01:20:09;5.3;;;4.3;;
17949;SDS011;9100;48.700;9.316;2023-12-28T01:21:08;5.3;;;4.3;;
17949;SDS011;9100;48.700;9.316;2023-12-28T01:21:15;6.4;;;5.3;;
17949;SDS011;9100;48.700;9.316;2023-12-28T01:22:09;6.4;;;5.3;;
17949;SDS011;9100;48.700;9.316;2023-12-28T01:23:08;6.4;;;5.3;;
17949;SDS011;9100;48.700;9.316;2023-12-28T01:24:08;6.4;;;5.3;;
17949;SDS011;9100;48.700;9.316;2023-12-28T01:25:08;6.4;;;5.3;;
17949;SDS011;9100;48.700;9.316;2023-12-28T01:26:12;6.4;;;5.3;;
17949;SDS011;9100;48.700;9.316;2023-12-28T01:26:15;6.1;;;4.1;;
17949;SDS011;9100;48.700;9.316;2023-12-28T01:27:08;6.1;;;4.1;;
17949;SDS011;9100;48.700;9.316;2023-12-28T01:28:08;6.1;;;4.1;;
17949;SDS011;9100;48.700;9.316;2023-12-28T01:29:08;6.1;;;4.1;;
17949;SDS011;9100;48.700;9.316;2023-12-28T01:30:08;6.1;;;4.1;;
17949;SDS011;9100;48.700;9.316;2023-12-28T01:31:08;6.1;;;4.1;;
17949;SDS011;9100;48.700;9.316;2023-12-28T01:31:15;5.3;;;4.3;;
17949;SDS011;9100;48.700;9.316;2023-12-28T01:32:08;5.3;;;4.3;;
17949;SDS011;9100;48.700;9.316;2023-12-28T01:33:08;5.3;;;4.3;;
17949;SDS011;9100;48.700;9.316;2023-12-28T01:34:08;5.3;;;4.3;;
17949;SDS011;9100;48.700;9.316;2023-12-28T01:35:08;5.3;;;4.3;;
17949;SDS011;9100;48.700;9.316;2023-12-28T01:36:15;5.3;;;4.3;;
17949;SDS011;9100;48.700;9.316;2023-12-28T01:36:16;5.9;;;4.8;;
17949;SDS011;9100;48.700;9.316;2023-12-28T01:37:08;5.9;;;4.8;;
17949;SDS011;9100;48.700;9.316;2023-12-28T01:38:08;5.9;;;4.8;;
17949;SDS011;9100;48.700;9.316;2023-12-28T01:39:08;5.9;;;4.8;;
17949;SDS011;9100;48.700;9.316;2023-12-28T01:40:09;5.9;;;4.8;;
17949;SDS011;9100;48.700;9.316;2023-12-28T01:41:09;5.9;;;4.8;;
17949;SDS011;9100;48.700;9.316;2023-12-28T01:41:15;4.9;;;4.1;;
17949;SDS011;9100;48.700;9.316;2023-12-28T01:42:09;4.9;;;4.1;;
17949;SDS011;9100;48.700;9.316;2023-12-28T01:43:08;4.9;;;4.1;;
17949;SDS011;9100;48.700;9.316;2023-12-28T01:44:08;4.9;;;4.1;;
17949;SDS011;9100;48.700;9.316;2023-12-28T01:45:08;4.9;;;4.1;;
17949;SDS011;9100;48.700;9.316;2023-12-28T01:46:10;4.9;;;4.1;;
17949;SDS011;9100;48.700;9.316;2023-12-28T01:46:16;7.4;;;5.7;;
17949;SDS011;9100;48.700;9.316;2023-12-28T01:47:08;7.4;;;5.7;;
17949;SDS011;9100;48.700;9.316;2023-12-28T01:48:08;7.4;;;5.7;;
17949;SDS011;9100;48.700;9.316;2023-12-28T01:49:08;7.4;;;5.7;;
17949;SDS011;9100;48.700;9.316;2023-12-28T01:50:08;7.4;;;5.7;;
17949;SDS011;9100;48.700;9.316;2023-12-28T01:51:08;7.4;;;5.7;;
17949;SDS011;9100;48.700;9.316;2023-12-28T01:51:15;5.8;;;4.5;;
17949;SDS011;9100;48.700;9.316;2023-12-28T01:52:08;5.8;;;4.5;;
17949;SDS011;9100;48.700;9.316;2023-12-28T01:53:08;5.8;;;4.5;;
17949;SDS011;9100;48.700;9.316;2023-12-28T01:54:08;5.8;;;4.5;;
17949;SDS011;9100;48.700;9.316;2023-12-28T01:55:08;5.8;;;4.5;;
17949;SDS011;9100;48.700;9.316;2023-12-28T01:56:08;5.8;;;4.5;;
17949;SDS011;9100;48.700;9.316;2023-12-28T01:56:15;5.7;;;4.4;;
17949;SDS011;9100;48.700;9.316;2023-12-28T01:57:09;5.7;;;4.4;;
17949;SDS011;9100;48.700;9.316;2023-12-28T01:58:08;5.7;;;4.4;;
17949;SDS011;9100;48.700;9.316;2023-12-28T01:59:09;5.7;;;4.4;;
17949;SDS011;9100;48.700;9.316;2023-12-28T02:00:09;5.7;;;4.4;;
17949;SDS011;9100;48.700;9.316;2023-12-28T02:01:09;5.7;;;4.4;;
17949;SDS011;9100;48.700;9.316;2023-12-28T02:01:15;5.5;;;4.9;;
17949;SDS011;9100;48.700;9.316;2023-12-28T02:02:08;5.5;;;4.9;;
17949;SDS011;9100;48.700;9.316;2023-12-28T02:03:09;5.5;;;4.9;;
17949;SDS011;9100;48.700;9.316;2023-12-28T02:04:09;5.5;;;4.9;;
17949;SDS011;9100;48.700;9.316;2023-12-28T02:05:08;5.5;;;4.9;;
17949;SDS011;9100;48.700;9.316;2023-12-28T02:06:08;5.5;;;4.9;;
17949;SDS011;9100;48.700;9.316;2023-12-28T02:06:15;5.7;;;4.4;;
17949;SDS011;9100;48.700;9.316;2023-12-28T02:07:08;5.7;;;4.4;;
17949;SDS011;9100;48.700;9.316;2023-12-28T02:08:08;5.7;;;4.4;;
17949;SDS011;9100;48.700;9.316;2023-12-28T02:09:08;5.7;;;4.4;;
17949;SDS011;9100;48.700;9.316;2023-12-28T02:10:08;5.7;;;4.4;;
17949;SDS011;9100;48.700;9.316;2023-12-28T02:11:08;5.7;;;4.4;;
17949;SDS011;9100;48.700;9.316;2023-12-28T02:11:15;5;;;3.9;;
17949;SDS011;9100;48.700;9.316;2023-12-28T02:12:08;5;;;3.9;;
17949;SDS011;9100;48.700;9.316;2023-12-28T02:13:08;5;;;3.9;;
17949;SDS011;9100;48.700;9.316;2023-12-28T02:14:08;5;;;3.9;;
17949;SDS011;9100;48.700;9.316;2023-12-28T02:15:09;5;;;3.9;;
17949;SDS011;9100;48.700;9.316;2023-12-28T02:16:09;5;;;3.9;;
17949;SDS011;9100;48.700;9.316;2023-12-28T02:16:17;4.4;;;4;;
17949;SDS011;9100;48.700;9.316;2023-12-28T02:17:10;4.4;;;4;;
17949;SDS011;9100;48.700;9.316;2023-12-28T02:18:09;4.4;;;4;;
17949;SDS011;9100;48.700;9.316;2023-12-28T02:19:12;4.4;;;4;;
17949;SDS011;9100;48.700;9.316;2023-12-28T02:20:09;4.4;;;4;;
17949;SDS011;9100;48.700;9.316;2023-12-28T02:21:09;4.4;;;4;;
17949;SDS011;9100;48.700;9.316;2023-12-28T02:21:15;5.9;;;4.1;;
17949;SDS011;9100;48.700;9.316;2023-12-28T02:22:09;5.9;;;4.1;;
17949;SDS011;9100;48.700;9.316;2023-12-28T02:23:09;5.9;;;4.1;;
17949;SDS011;9100;48.700;9.316;2023-12-28T02:24:08;5.9;;;4.1;;
17949;SDS011;9100;48.700;9.316;2023-12-28T02:25:09;5.9;;;4.1;;
17949;SDS011;9100;48.700;9.316;2023-12-28T02:26:08;5.9;;;4.1;;
17949;SDS011;9100;48.700;9.316;2023-12-28T02:26:15;4.2;;;3.7;;
17949;SDS011;9100;48.700;9.316;2023-12-28T02:27:08;4.2;;;3.7;;
17949;SDS011;9100;48.700;9.316;2023-12-28T02:28:08;4.2;;;3.7;;
17949;SDS011;9100;48.700;9.316;2023-12-28T02:29:08;4.2;;;3.7;;
17949;SDS011;9100;48.700;9.316;2023-12-28T02:30:09;4.2;;;3.7;;
17949;SDS011;9100;48.700;9.316;2023-12-28T02:31:09;4.2;;;3.7;;
17949;SDS011;9100;48.700;9.316;2023-12-28T02:31:17;4.2;;;3.8;;
17949;SDS011;9100;48.700;9.316;2023-12-28T02:32:09;4.2;;;3.8;;
17949;SDS011;9100;48.700;9.316;2023-12-28T02:33:11;4.2;;;3.8;;
17949;SDS011;9100;48.700;9.316;2023-12-28T02:34:09;4.2;;;3.8;;
17949;SDS011;9100;48.700;9.316;2023-12-28T02:35:11;4.2;;;3.8;;
17949;SDS011;9100;48.700;9.316;2023-12-28T02:36:10;4.2;;;3.8;;
17949;SDS011;9100;48.700;9.316;2023-12-28T02:36:15;4.7;;;4.2;;
17949;SDS011;9100;48.700;9.316;2023-12-28T02:37:08;4.7;;;4.2;;
17949;SDS011;9100;48.700;9.316;2023-12-28T02:38:09;4.7;;;4.2;;
17949;SDS011;9100;48.700;9.316;2023-12-28T02:39:08;4.7;;;4.2;;
17949;SDS011;9100;48.700;9.316;2023-12-28T02:40:08;4.7;;;4.2;;
17949;SDS011;9100;48.700;9.316;2023-12-28T02:41:09;4.7;;;4.2;;
17949;SDS011;9100;48.700;9.316;2023-12-28T02:41:15;4.6;;;3.9;;
17949;SDS011;9100;48.700;9.316;2023-12-28T02:42:08;4.6;;;3.9;;
17949;SDS011;9100;48.700;9.316;2023-12-28T02:43:08;4.6;;;3.9;;
17949;SDS011;9100;48.700;9.316;2023-12-28T02:44:09;4.6;;;3.9;;
17949;SDS011;9100;48.700;9.316;2023-12-28T02:45:08;4.6;;;3.9;;
17949;SDS011;9100;48.700;9.316;2023-12-28T02:46:08;4.6;;;3.9;;
17949;SDS011;9100;48.700;9.316;2023-12-28T02:46:15;4;;;3.6;;
17949;SDS011;9100;48.700;9.316;2023-12-28T02:47:08;4;;;3.6;;
17949;SDS011;9100;48.700;9.316;2023-12-28T02:48:08;4;;;3.6;;
17949;SDS011;9100;48.700;9.316;2023-12-28T02:49:09;4;;;3.6;;
17949;SDS011;9100;48.700;9.316;2023-12-28T02:50:08;4;;;3.6;;
17949;SDS011;9100;48.700;9.316;2023-12-28T02:51:09;4;;;3.6;;
17949;SDS011;9100;48.700;9.316;2023-12-28T02:51:15;3.8;;;3.2;;
17949;SDS011;9100;48.700;9.316;2023-12-28T02:52:08;3.8;;;3.2;;
17949;SDS011;9100;48.700;9.316;2023-12-28T02:53:08;3.8;;;3.2;;
17949;SDS011;9100;48.700;9.316;2023-12-28T02:54:08;3.8;;;3.2;;
17949;SDS011;9100;48.700;9.316;2023-12-28T02:55:08;3.8;;;3.2;;
17949;SDS011;9100;48.700;9.316;2023-12-28T02:56:08;3.8;;;3.2;;
17949;SDS011;9100;48.700;9.316;2023-12-28T02:56:15;4.1;;;3.1;;
17949;SDS011;9100;48.700;9.316;2023-12-28T02:57:08;4.1;;;3.1;;
17949;SDS011;9100;48.700;9.316;2023-12-28T02:58:08;4.1;;;3.1;;
17949;SDS011;9100;48.700;9.316;2023-12-28T02:59:08;4.1;;;3.1;;
17949;SDS011;9100;48.700;9.316;2023-12-28T03:00:09;4.1;;;3.1;;
17949;SDS011;9100;48.700;9.316;2023-12-28T03:01:08;4.1;;;3.1;;
17949;SDS011;9100;48.700;9.316;2023-12-28T03:01:15;4.2;;;3.1;;
17949;SDS011;9100;48.700;9.316;2023-12-28T03:02:08;4.2;;;3.1;;
17949;SDS011;9100;48.700;9.316;2023-12-28T03:03:08;4.2;;;3.1;;
17949;SDS011;9100;48.700;9.316;2023-12-28T03:04:08;4.2;;;3.1;;
17949;SDS011;9100;48.700;9.316;2023-12-28T03:05:09;4.2;;;3.1;;
17949;SDS011;9100;48.700;9.316;2023-12-28T03:06:08;4.2;;;3.1;;
17949;SDS011;9100;48.700;9.316;2023-12-28T03:06:15;2.9;;;2.7;;
17949;SDS011;9100;48.700;9.316;2023-12-28T03:07:08;2.9;;;2.7;;
17949;SDS011;9100;48.700;9.316;2023-12-28T03:08:08;2.9;;;2.7;;
17949;SDS011;9100;48.700;9.316;2023-12-28T03:09:08;2.9;;;2.7;;
17949;SDS011;9100;48.700;9.316;2023-12-28T03:10:09;2.9;;;2.7;;
17949;SDS011;9100;48.700;9.316;2023-12-28T03:11:08;2.9;;;2.7;;
17949;SDS011;9100;48.700;9.316;2023-12-28T03:11:15;2.3;;;2.1;;
17949;SDS011;9100;48.700;9.316;2023-12-28T03:12:08;2.3;;;2.1;;
17949;SDS011;9100;48.700;9.316;2023-12-28T03:13:08;2.3;;;2.1;;
17949;SDS011;9100;48.700;9.316;2023-12-28T03:14:08;2.3;;;2.1;;
17949;SDS011;9100;48.700;9.316;2023-12-28T03:15:09;2.3;;;2.1;;
17949;SDS011;9100;48.700;9.316;2023-12-28T03:16:08;2.3;;;2.1;;
17949;SDS011;9100;48.700;9.316;2023-12-28T03:16:15;2.6;;;2.3;;
17949;SDS011;9100;48.700;9.316;2023-12-28T03:17:08;2.6;;;2.3;;
17949;SDS011;9100;48.700;9.316;2023-12-28T03:18:09;2.6;;;2.3;;
17949;SDS011;9100;48.700;9.316;2023-12-28T03:19:08;2.6;;;2.3;;
17949;SDS011;9100;48.700;9.316;2023-12-28T03:20:09;2.6;;;2.3;;
17949;SDS011;9100;48.700;9.316;2023-12-28T03:21:08;2.6;;;2.3;;
17949;SDS011;9100;48.700;9.316;2023-12-28T03:21:15;2;;;1.9;;
17949;SDS011;9100;48.700;9.316;2023-12-28T03:22:09;2;;;1.9;;
17949;SDS011;9100;48.700;9.316;2023-12-28T03:23:08;2;;;1.9;;
17949;SDS011;9100;48.700;9.316;2023-12-28T03:24:09;2;;;1.9;;
17949;SDS011;9100;48.700;9.316;2023-12-28T03:25:09;2;;;1.9;;
17949;SDS011;9100;48.700;9.316;2023-12-28T03:26:09;2;;;1.9;;
17949;SDS011;9100;48.700;9.316;2023-12-28T03:26:15;2.2;;;2;;
17949;SDS011;9100;48.700;9.316;2023-12-28T03:27:09;2.2;;;2;;
17949;SDS011;9100;48.700;9.316;2023-12-28T03:28:08;2.2;;;2;;
17949;SDS011;9100;48.700;9.316;2023-12-28T03:29:08;2.2;;;2;;
17949;SDS011;9100;48.700;9.316;2023-12-28T03:30:09;2.2;;;2;;
17949;SDS011;9100;48.700;9.316;2023-12-28T03:31:08;2.2;;;2;;
17949;SDS011;9100;48.700;9.316;2023-12-28T03:31:15;2.4;;;2.2;;
17949;SDS011;9100;48.700;9.316;2023-12-28T03:32:09;2.4;;;2.2;;
17949;SDS011;9100;48.700;9.316;2023-12-28T03:33:09;2.4;;;2.2;;
17949;SDS011;9100;48.700;9.316;2023-12-28T03:34:08;2.4;;;2.2;;
17949;SDS011;9100;48.700;9.316;2023-12-28T03:35:08;2.4;;;2.2;;
17949;SDS011;9100;48.700;9.316;2023-12-28T03:36:17;2.4;;;2.2;;
17949;SDS011;9100;48.700;9.316;2023-12-28T03:36:18;3.4;;;2.2;;
17949;SDS011;9100;48.700;9.316;2023-12-28T03:37:09;3.4;;;2.2;;
17949;SDS011;9100;48.700;9.316;2023-12-28T03:38:08;3.4;;;2.2;;
17949;SDS011;9100;48.700;9.316;2023-12-28T03:39:08;3.4;;;2.2;;
17949;SDS011;9100;48.700;9.316;2023-12-28T03:40:09;3.4;;;2.2;;
17949;SDS011;9100;48.700;9.316;2023-12-28T03:41:15;3.4;;;2.2;;
17949;SDS011;9100;48.700;9.316;2023-12-28T03:41:16;5;;;2.3;;
17949;SDS011;9100;48.700;9.316;2023-12-28T03:42:09;5;;;2.3;;
17949;SDS011;9100;48.700;9.316;2023-12-28T03:43:08;5;;;2.3;;
17949;SDS011;9100;48.700;9.316;2023-12-28T03:44:08;5;;;2.3;;
17949;SDS011;9100;48.700;9.316;2023-12-28T03:45:09;5;;;2.3;;
17949;SDS011;9100;48.700;9.316;2023-12-28T03:46:09;5;;;2.3;;
17949;SDS011;9100;48.700;9.316;2023-12-28T03:46:15;2.1;;;2;;
17949;SDS011;9100;48.700;9.316;2023-12-28T03:47:09;2.1;;;2;;
17949;SDS011;9100;48.700;9.316;2023-12-28T03:48:08;2.1;;;2;;
17949;SDS011;9100;48.700;9.316;2023-12-28T03:49:09;2.1;;;2;;
17949;SDS011;9100;48.700;9.316;2023-12-28T03:50:08;2.1;;;2;;
17949;SDS011;9100;48.700;9.316;2023-12-28T03:51:12;2.1;;;2;;
17949;SDS011;9100;48.700;9.316;2023-12-28T03:51:15;3.1;;;2.5;;
17949;SDS011;9100;48.700;9.316;2023-12-28T03:52:08;3.1;;;2.5;;
17949;SDS011;9100;48.700;9.316;2023-12-28T03:53:08;3.1;;;2.5;;
17949;SDS011;9100;48.700;9.316;2023-12-28T03:54:08;3.1;;;2.5;;
17949;SDS011;9100;48.700;9.316;2023-12-28T03:55:08;3.1;;;2.5;;
17949;SDS011;9100;48.700;9.316;2023-12-28T03:56:17;3.1;;;2.5;;
17949;SDS011;9100;48.700;9.316;2023-12-28T03:56:20;2.2;;;2.1;;
17949;SDS011;9100;48.700;9.316;2023-12-28T03:57:08;2.2;;;2.1;;
17949;SDS011;9100;48.700;9.316;2023-12-28T03:58:08;2.2;;;2.1;;
17949;SDS011;9100;48.700;9.316;2023-12-28T03:59:09;2.2;;;2.1;;
17949;SDS011;9100;48.700;9.316;2023-12-28T04:00:09;2.2;;;2.1;;
17949;SDS011;9100;48.700;9.316;2023-12-28T04:01:09;2.2;;;2.1;;
17949;SDS011;9100;48.700;9.316;2023-12-28T04:01:16;1.9;;;1.8;;
17949;SDS011;9100;48.700;9.316;2023-12-28T04:02:08;1.9;;;1.8;;
17949;SDS011;9100;48.700;9.316;2023-12-28T04:03:08;1.9;;;1.8;;
17949;SDS011;9100;48.700;9.316;2023-12-28T04:04:08;1.9;;;1.8;;
17949;SDS011;9100;48.700;9.316;2023-12-28T04:05:08;1.9;;;1.8;;
17949;SDS011;9100;48.700;9.316;2023-12-28T04:06:08;1.9;;;1.8;;
17949;SDS011;9100;48.700;9.316;2023-12-28T04:06:15;1.9;;;1.8;;
17949;SDS011;9100;48.700;9.316;2023-12-28T04:07:08;1.9;;;1.8;;
17949;SDS011;9100;48.700;9.316;2023-12-28T04:08:08;1.9;;;1.8;;
17949;SDS011;9100;48.700;9.316;2023-12-28T04:09:08;1.9;;;1.8;;
17949;SDS011;9100;48.700;9.316;2023-12-28T04:10:09;1.9;;;1.8;;
17949;SDS011;9100;48.700;9.316;2023-12-28T04:11:08;1.9;;;1.8;;
17949;SDS011;9100;48.700;9.316;2023-12-28T04:11:15;1.8;;;1.7;;
17949;SDS011;9100;48.700;9.316;2023-12-28T04:12:09;1.8;;;1.7;;
17949;SDS011;9100;48.700;9.316;2023-12-28T04:13:08;1.8;;;1.7;;
17949;SDS011;9100;48.700;9.316;2023-12-28T04:14:08;1.8;;;1.7;;
17949;SDS011;9100;48.700;9.316;2023-12-28T04:15:08;1.8;;;1.7;;
17949;SDS011;9100;48.700;9.316;2023-12-28T04:16:11;1.8;;;1.7;;
17949;SDS011;9100;48.700;9.316;2023-12-28T04:16:15;1.6;;;1.5;;
17949;SDS011;9100;48.700;9.316;2023-12-28T04:17:08;1.6;;;1.5;;
17949;SDS011;9100;48.700;9.316;2023-12-28T04:18:09;1.6;;;1.5;;
17949;SDS011;9100;48.700;9.316;2023-12-28T04:19:09;1.6;;;1.5;;
17949;SDS011;9100;48.700;9.316;2023-12-28T04:20:09;1.6;;;1.5;;
17949;SDS011;9100;48.700;9.316;2023-12-28T04:21:09;1.6;;;1.5;;
17949;SDS011;9100;48.700;9.316;2023-12-28T04:21:15;1.4;;;1.3;;
17949;SDS011;9100;48.700;9.316;2023-12-28T04:22:08;1.4;;;1.3;;
17949;SDS011;9100;48.700;9.316;2023-12-28T04:23:08;1.4;;;1.3;;
17949;SDS011;9100;48.700;9.316;2023-12-28T04:24:08;1.4;;;1.3;;
17949;SDS011;9100;48.700;9.316;2023-12-28T04:25:09;1.4;;;1.3;;
17949;SDS011;9100;48.700;9.316;2023-12-28T04:26:08;1.4;;;1.3;;
17949;SDS011;9100;48.700;9.316;2023-12-28T04:26:17;1.4;;;1.3;;
17949;SDS011;9100;48.700;9.316;2023-12-28T04:27:09;1.4;;;1.3;;
17949;SDS011;9100;48.700;9.316;2023-12-28T04:28:09;1.4;;;1.3;;
17949;SDS011;9100;48.700;9.316;2023-12-28T04:29:08;1.4;;;1.3;;
17949;SDS011;9100;48.700;9.316;2023-12-28T04:30:11;1.4;;;1.3;;
17949;SDS011;9100;48.700;9.316;2023-12-28T04:31:08;1.4;;;1.3;;
17949;SDS011;9100;48.700;9.316;2023-12-28T04:31:15;2.6;;;1.5;;
17949;SDS011;9100;48.700;9.316;2023-12-28T04:32:09;2.6;;;1.5;;
17949;SDS011;9100;48.700;9.316;2023-12-28T04:33:08;2.6;;;1.5;;
17949;SDS011;9100;48.700;9.316;2023-12-28T04:34:08;2.6;;;1.5;;
17949;SDS011;9100;48.700;9.316;2023-12-28T04:35:08;2.6;;;1.5;;
17949;SDS011;9100;48.700;9.316;2023-12-28T04:36:08;2.6;;;1.5;;
17949;SDS011;9100;48.700;9.316;2023-12-28T04:36:15;1.6;;;1.5;;
17949;SDS011;9100;48.700;9.316;2023-12-28T04:37:09;1.6;;;1.5;;
17949;SDS011;9100;48.700;9.316;2023-12-28T04:38:08;1.6;;;1.5;;
17949;SDS011;9100;48.700;9.316;2023-12-28T04:39:08;1.6;;;1.5;;
17949;SDS011;9100;48.700;9.316;2023-12-28T04:40:09;1.6;;;1.5;;
17949;SDS011;9100;48.700;9.316;2023-12-28T04:41:09;1.6;;;1.5;;
17949;SDS011;9100;48.700;9.316;2023-12-28T04:41:15;1.4;;;1.4;;
17949;SDS011;9100;48.700;9.316;2023-12-28T04:42:08;1.4;;;1.4;;
17949;SDS011;9100;48.700;9.316;2023-12-28T04:43:09;1.4;;;1.4;;
17949;SDS011;9100;48.700;9.316;2023-12-28T04:44:08;1.4;;;1.4;;
17949;SDS011;9100;48.700;9.316;2023-12-28T04:45:09;1.4;;;1.4;;
17949;SDS011;9100;48.700;9.316;2023-12-28T04:46:08;1.4;;;1.4;;
17949;SDS011;9100;48.700;9.316;2023-12-28T04:46:15;1.3;;;1.3;;
17949;SDS011;9100;48.700;9.316;2023-12-28T04:47:08;1.3;;;1.3;;
17949;SDS011;9100;48.700;9.316;2023-12-28T04:48:08;1.3;;;1.3;;
17949;SDS011;9100;48.700;9.316;2023-12-28T04:49:10;1.3;;;1.3;;
17949;SDS011;9100;48.700;9.316;2023-12-28T04:50:09;1.3;;;1.3;;
17949;SDS011;9100;48.700;9.316;2023-12-28T04:51:08;1.3;;;1.3;;
17949;SDS011;9100;48.700;9.316;2023-12-28T04:51:15;1.3;;;1.2;;
17949;SDS011;9100;48.700;9.316;2023-12-28T04:52:09;1.3;;;1.2;;
17949;SDS011;9100;48.700;9.316;2023-12-28T04:53:08;1.3;;;1.2;;
17949;SDS011;9100;48.700;9.316;2023-12-28T04:54:09;1.3;;;1.2;;
17949;SDS011;9100;48.700;9.316;2023-12-28T04:55:09;1.3;;;1.2;;
17949;SDS011;9100;48.700;9.316;2023-12-28T04:56:08;1.3;;;1.2;;
17949;SDS011;9100;48.700;9.316;2023-12-28T04:56:17;1.4;;;1.3;;
17949;SDS011;9100;48.700;9.316;2023-12-28T04:57:08;1.4;;;1.3;;
17949;SDS011;9100;48.700;9.316;2023-12-28T04:58:09;1.4;;;1.3;;
17949;SDS011;9100;48.700;9.316;2023-12-28T04:59:08;1.4;;;1.3;;
17949;SDS011;9100;48.700;9.316;2023-12-28T05:00:09;1.4;;;1.3;;
17949;SDS011;9100;48.700;9.316;2023-12-28T05:01:09;1.4;;;1.3;;
17949;SDS011;9100;48.700;9.316;2023-12-28T05:01:15;1.9;;;1.7;;
17949;SDS011;9100;48.700;9.316;2023-12-28T05:02:09;1.9;;;1.7;;
17949;SDS011;9100;48.700;9.316;2023-12-28T05:03:08;1.9;;;1.7;;
17949;SDS011;9100;48.700;9.316;2023-12-28T05:04:09;1.9;;;1.7;;
17949;SDS011;9100;48.700;9.316;2023-12-28T05:05:11;1.9;;;1.7;;
17949;SDS011;9100;48.700;9.316;2023-12-28T05:06:08;1.9;;;1.7;;
17949;SDS011;9100;48.700;9.316;2023-12-28T05:06:15;1.6;;;1.5;;
17949;SDS011;9100;48.700;9.316;2023-12-28T05:07:08;1.6;;;1.5;;
17949;SDS011;9100;48.700;9.316;2023-12-28T05:08:08;1.6;;;1.5;;
17949;SDS011;9100;48.700;9.316;2023-12-28T05:09:09;1.6;;;1.5;;
17949;SDS011;9100;48.700;9.316;2023-12-28T05:10:09;1.6;;;1.5;;
17949;SDS011;9100;48.700;9.316;2023-12-28T05:11:08;1.6;;;1.5;;
17949;SDS011;9100;48.700;9.316;2023-12-28T05:11:15;1.3;;;1.2;;
17949;SDS011;9100;48.700;9.316;2023-12-28T05:12:09;1.3;;;1.2;;
17949;SDS011;9100;48.700;9.316;2023-12-28T05:13:08;1.3;;;1.2;;
17949;SDS011;9100;48.700;9.316;2023-12-28T05:14:09;1.3;;;1.2;;
17949;SDS011;9100;48.700;9.316;2023-12-28T05:15:09;1.3;;;1.2;;
17949;SDS011;9100;48.700;9.316;2023-12-28T05:16:09;1.3;;;1.2;;
17949;SDS011;9100;48.700;9.316;2023-12-28T05:16:15;1.2;;;1.2;;